Time;durP1;ratioP1;P1;durP2;ratioP2;P2;SDS_P1;SDS_P2;PMS_P1;PMS_P2;Temp;Humidity;BMP_temperature;BMP_pressure;BME280_temperature;BME280_humidity;BME280_pressure;Samples;Min_cycle;Max_cycle;Signal;HPM_P1;HPM_P2
2022/05/05 00:00:52;;;;;;;7.70;1.90;;;;;;;10.22;35.73;101222.72;2094842;28;20369;-70
2022/05/05 00:01:56;;;;;;;4.28;1.92;;;;;;;10.25;36.28;101221.38;2101618;28;20292;-70
2022/05/05 00:03:02;;;;;;;17.48;2.45;;;;;;;10.27;35.63;101220.06;2094727;28;20287;-71
2022/05/05 00:04:07;;;;;;;14.45;2.22;;;;;;;10.30;35.95;101219.53;2086260;28;20291;-70
2022/05/05 00:05:12;;;;;;;8.45;2.22;;;;;;;10.33;35.95;101227.09;2077996;28;21189;-71
2022/05/05 00:06:17;;;;;;;5.20;2.13;;;;;;;10.29;35.19;101223.31;2093634;28;20363;-71
2022/05/05 00:07:22;;;;;;;9.25;1.90;;;;;;;10.34;36.04;101231.41;2075214;28;20287;-71
2022/05/05 00:08:26;;;;;;;11.45;2.35;;;;;;;10.37;35.23;101220.13;2087928;28;20663;-71
2022/05/05 00:09:30;;;;;;;5.43;2.03;;;;;;;10.35;36.17;101216.91;2109020;28;20281;-72
2022/05/05 00:14:40;;;;;;;7.55;2.00;;;;;;;10.46;35.05;101227.69;2095595;28;20735;-72
2022/05/05 00:15:42;;;;;;;5.05;2.10;;;;;;;10.41;35.56;101213.16;2102254;28;20290;-73
2022/05/05 00:16:47;;;;;;;12.32;2.63;;;;;;;10.44;35.22;101222.59;2102935;28;20300;-74
2022/05/05 00:17:52;;;;;;;6.88;2.40;;;;;;;10.48;35.34;101217.50;2097947;28;20282;-74
2022/05/05 00:18:54;;;;;;;9.68;2.45;;;;;;;10.50;35.44;101212.66;2094981;28;20291;-73
2022/05/05 00:19:58;;;;;;;15.20;2.83;;;;;;;10.54;35.13;101209.19;2086126;28;20289;-73
2022/05/05 00:21:04;;;;;;;9.38;2.65;;;;;;;10.56;35.71;101214.28;2086925;28;20290;-75
2022/05/05 00:22:10;;;;;;;9.30;2.80;;;;;;;10.51;35.32;101216.97;2094838;28;20297;-75
2022/05/05 00:23:13;;;;;;;11.93;2.35;;;;;;;10.50;34.80;101215.34;2094336;28;20294;-75
2022/05/05 00:24:16;;;;;;;7.22;2.20;;;;;;;10.59;34.86;101216.47;2086376;28;20291;-74
2022/05/05 00:25:19;;;;;;;7.53;2.00;;;;;;;10.59;34.14;101216.47;2102039;28;20289;-75
2022/05/05 00:26:21;;;;;;;6.32;2.00;;;;;;;10.54;35.03;101209.19;2093671;28;20295;-74
2022/05/05 00:27:28;;;;;;;10.35;2.65;;;;;;;10.54;34.14;101225.31;2094019;28;20321;-74
2022/05/05 00:28:30;;;;;;;10.88;2.38;;;;;;;10.59;34.17;101216.47;2102429;28;21125;-75
2022/05/05 00:29:35;;;;;;;14.85;2.15;;;;;;;10.59;33.94;101211.09;2090424;28;20679;-75
2022/05/05 00:30:39;;;;;;;6.00;2.33;;;;;;;10.58;34.00;101210.28;2086547;28;21039;-75
2022/05/05 00:31:46;;;;;;;13.23;3.33;;;;;;;10.59;35.00;101211.91;2086843;28;20302;-75
2022/05/05 00:32:49;;;;;;;4.72;1.90;;;;;;;10.59;34.29;101208.38;2100013;28;20286;-75
2022/05/05 00:33:55;;;;;;;6.35;1.90;;;;;;;10.59;34.37;101200.31;2102593;28;20782;-75
2022/05/05 00:35:01;;;;;;;8.23;2.28;;;;;;;10.56;33.93;101200.84;2094136;28;20302;-74
2022/05/05 00:36:07;;;;;;;9.15;2.40;;;;;;;10.54;34.61;101211.06;2095019;28;20345;-74
2022/05/05 00:37:13;;;;;;;9.10;2.33;;;;;;;10.57;34.49;101207.88;2069086;28;20293;-74
2022/05/05 00:38:17;;;;;;;11.70;2.10;;;;;;;10.64;34.62;101219.19;2073208;28;20374;-76
2022/05/05 00:39:23;;;;;;;9.13;2.10;;;;;;;10.66;33.97;101208.97;2094538;28;20305;-76
2022/05/05 00:40:29;;;;;;;6.82;2.08;;;;;;;10.70;34.68;101210.06;2093911;28;20287;-75
2022/05/05 00:41:33;;;;;;;7.97;2.33;;;;;;;10.68;34.45;101210.31;2094540;28;20725;-76
2022/05/05 00:42:38;;;;;;;6.95;2.42;;;;;;;10.67;34.19;101206.00;2097214;28;20297;-76
2022/05/05 00:43:42;;;;;;;6.32;2.03;;;;;;;10.72;34.46;101204.41;2094990;28;20290;-75
2022/05/05 00:44:47;;;;;;;7.07;2.25;;;;;;;10.72;34.35;101204.41;2102637;28;20641;-76
2022/05/05 00:45:50;;;;;;;9.70;2.33;;;;;;;10.73;34.68;101206.03;2101065;28;20285;-74
2022/05/05 00:46:53;;;;;;;5.65;1.80;;;;;;;10.77;34.41;101205.25;2094556;28;20287;-74
2022/05/05 00:48:26;;;;;;;10.93;2.10;;;;;;;10.82;34.53;101205.28;2086100;28;20303;-75
2022/05/05 00:49:32;;;;;;;11.73;2.20;;;;;;;10.84;34.23;101203.09;2094495;28;20282;-74
2022/05/05 00:50:36;;;;;;;10.15;2.10;;;;;;;10.80;34.36;101209.28;2084141;28;20294;-74
2022/05/05 00:51:39;;;;;;;9.63;2.50;;;;;;;10.80;34.67;101207.41;2085898;28;20283;-75
2022/05/05 00:52:41;;;;;;;7.22;2.33;;;;;;;10.79;34.57;101210.38;2089825;28;20295;-75
2022/05/05 00:53:44;;;;;;;8.55;2.25;;;;;;;10.78;34.71;101209.56;2081612;28;20691;-73
2022/05/05 00:54:47;;;;;;;10.13;2.47;;;;;;;10.84;34.12;101210.38;2085496;28;20298;-73
2022/05/05 00:55:52;;;;;;;15.65;2.20;;;;;;;10.85;34.64;101204.75;2086299;28;20291;-73
2022/05/05 00:57:01;;;;;;;10.60;2.40;;;;;;;10.85;34.64;101202.06;2101379;28;20286;-72
2022/05/05 00:58:04;;;;;;;11.05;3.15;;;;;;;10.88;34.27;101203.41;2101297;28;20286;-72
2022/05/05 00:59:09;;;;;;;21.00;3.22;;;;;;;10.92;34.47;101198.31;2101790;28;20286;-72
2022/05/05 01:00:18;;;;;;;10.13;3.25;;;;;;;10.87;34.58;101205.25;2102282;28;20292;-71
2022/05/05 01:01:22;;;;;;;9.43;3.30;;;;;;;10.83;34.75;101201.50;2102986;28;20289;-71
2022/05/05 01:02:28;;;;;;;15.85;3.40;;;;;;;10.89;34.95;101205.81;2102122;28;20278;-71
2022/05/05 01:03:33;;;;;;;11.45;3.13;;;;;;;10.93;34.08;101197.22;2096257;28;20291;-71
2022/05/05 01:04:37;;;;;;;11.02;3.22;;;;;;;10.95;34.29;101203.97;2102916;28;20289;-71
2022/05/05 01:05:41;;;;;;;9.75;2.80;;;;;;;10.98;34.32;101195.38;2093749;28;20298;-71
2022/05/05 01:06:45;;;;;;;9.23;2.70;;;;;;;11.01;34.66;101197.53;2087026;28;20290;-71
2022/05/05 01:07:50;;;;;;;11.63;2.85;;;;;;;11.00;34.24;101200.47;2079902;28;20704;-71
2022/05/05 01:08:55;;;;;;;5.20;2.20;;;;;;;11.00;34.20;101195.91;2093326;28;20287;-71
2022/05/05 01:10:03;;;;;;;8.38;2.67;;;;;;;11.05;34.66;101205.88;2085425;28;20288;-71
2022/05/05 01:11:06;;;;;;;7.35;2.90;;;;;;;11.03;34.32;101199.94;2087140;28;20779;-72
2022/05/05 01:12:12;;;;;;;7.72;2.50;;;;;;;11.04;33.92;101204.25;2093921;28;20805;-72
2022/05/05 01:13:16;;;;;;;7.40;2.55;;;;;;;11.02;34.32;101198.31;2087317;28;20299;-71
2022/05/05 01:14:19;;;;;;;9.48;2.28;;;;;;;10.93;34.44;101200.72;2078205;28;20284;-70
2022/05/05 01:15:29;;;;;;;4.72;2.70;;;;;;;10.99;34.60;101196.16;2079911;28;20300;-71
2022/05/05 01:16:34;;;;;;;17.80;2.15;;;;;;;10.97;34.83;101199.13;2088144;28;20283;-70
2022/05/05 01:17:41;;;;;;;5.18;2.10;;;;;;;10.90;34.46;101195.88;2094000;28;20028;-71
2022/05/05 01:18:44;;;;;;;7.07;2.08;;;;;;;10.93;34.82;101191.84;2091100;28;20294;-71
2022/05/05 01:19:48;;;;;;;12.75;1.95;;;;;;;10.92;34.75;101187.53;2101386;28;20298;-70
2022/05/05 01:20:54;;;;;;;11.98;2.58;;;;;;;10.96;34.65;101194.81;2101889;28;20293;-72
2022/05/05 01:22:03;;;;;;;7.32;2.00;;;;;;;10.97;34.09;101193.75;2102198;28;20286;-71
2022/05/05 01:23:07;;;;;;;8.43;2.33;;;;;;;11.01;34.95;101194.03;2082883;28;20304;-72
2022/05/05 01:24:10;;;;;;;8.52;2.33;;;;;;;11.04;34.22;101188.13;2078021;28;20299;-71
2022/05/05 01:28:12;;;;;;;7.47;1.88;;;;;;;11.09;34.75;101190.78;2100126;28;21205;-70
2022/05/05 01:29:15;;;;;;;4.22;2.00;;;;;;;11.08;34.71;101186.50;2096858;28;20283;-71
2022/05/05 01:30:20;;;;;;;8.00;2.00;;;;;;;11.07;34.40;101201.84;2102464;28;20297;-71
2022/05/05 01:31:25;;;;;;;7.95;2.22;;;;;;;11.07;34.29;101201.03;2103168;28;21080;-70
2022/05/05 01:32:32;;;;;;;5.55;2.05;;;;;;;11.06;34.18;101194.03;2103800;28;20278;-70
2022/05/05 01:33:42;;;;;;;5.80;2.08;;;;;;;11.05;34.73;101197.78;2094776;28;20289;-71
2022/05/05 01:34:44;;;;;;;5.93;2.20;;;;;;;11.01;34.58;101186.75;2094802;28;20646;-70
2022/05/05 01:35:52;;;;;;;7.85;1.75;;;;;;;11.04;34.98;101188.13;2089803;28;20303;-71
2022/05/05 01:36:58;;;;;;;11.80;1.90;;;;;;;11.04;34.43;101190.81;2096275;28;20666;-70
2022/05/05 01:38:00;;;;;;;3.67;1.70;;;;;;;11.02;34.31;101190.25;2089963;28;20286;-71
2022/05/05 01:39:04;;;;;;;10.02;1.85;;;;;;;10.96;34.47;101188.63;2086108;28;20358;-72
2022/05/05 01:40:10;;;;;;;4.47;1.60;;;;;;;10.92;34.31;101193.72;2077572;28;20304;-72
2022/05/05 01:41:14;;;;;;;5.75;1.95;;;;;;;10.92;34.73;101192.94;2086674;28;20287;-71
2022/05/05 01:42:20;;;;;;;4.25;1.92;;;;;;;10.97;34.92;101190.22;2086272;28;20814;-72
2022/05/05 01:43:22;;;;;;;8.50;1.83;;;;;;;10.98;34.21;101186.47;2091164;28;20302;-72
2022/05/05 01:44:28;;;;;;;3.47;1.73;;;;;;;10.99;34.91;101188.09;2094326;28;20882;-71
2022/05/05 01:45:32;;;;;;;9.40;2.08;;;;;;;10.96;35.04;101189.44;2095278;28;20306;-72
2022/05/05 01:46:41;;;;;;;5.57;1.90;;;;;;;10.97;34.66;101185.69;2087181;28;20291;-71
2022/05/05 01:47:43;;;;;;;9.15;1.80;;;;;;;11.00;34.97;101189.69;2097033;28;20296;-71
2022/05/05 01:48:47;;;;;;;8.10;2.30;;;;;;;11.02;34.47;101192.94;2101698;28;20286;-71
2022/05/05 01:49:58;;;;;;;3.85;1.90;;;;;;;11.03;34.49;101195.34;2078339;28;20287;-71
2022/05/05 01:51:00;;;;;;;5.93;1.80;;;;;;;11.01;35.45;101185.97;2076842;28;20295;-71
2022/05/05 01:52:09;;;;;;;5.43;1.85;;;;;;;10.95;34.97;101189.72;2086500;28;20349;-72
2022/05/05 01:53:11;;;;;;;8.85;1.80;;;;;;;10.98;35.29;101186.47;2095027;28;20282;-71
2022/05/05 01:54:13;;;;;;;5.93;1.70;;;;;;;10.96;34.62;101188.63;2093853;28;20293;-70
2022/05/05 01:55:18;;;;;;;4.38;1.88;;;;;;;10.90;35.16;101196.66;2078367;28;20767;-70
2022/05/05 01:56:23;;;;;;;4.57;1.98;;;;;;;10.89;35.52;101186.19;2072965;28;20289;-69
2022/05/05 01:57:24;;;;;;;4.32;1.70;;;;;;;10.94;35.45;101182.69;2070999;28;20308;-69
2022/05/05 01:58:26;;;;;;;4.63;1.73;;;;;;;10.92;35.21;101187.53;2082026;28;20284;-71
2022/05/05 01:59:33;;;;;;;12.85;2.15;;;;;;;10.92;35.26;101190.22;2101815;28;20768;-70
2022/05/05 02:00:40;;;;;;;7.93;3.20;;;;;;;10.92;35.34;101182.16;2079794;28;20288;-71
2022/05/05 02:01:45;;;;;;;7.95;2.30;;;;;;;10.94;35.33;101174.63;2095393;28;20293;-71
2022/05/05 02:02:48;;;;;;;5.15;2.20;;;;;;;11.00;34.92;101184.31;2103036;28;20602;-71
2022/05/05 02:03:52;;;;;;;8.00;1.83;;;;;;;11.02;35.23;101185.66;2087546;28;20295;-71
2022/05/05 02:04:55;;;;;;;4.32;2.20;;;;;;;11.04;34.75;101190.81;2086268;28;20294;-71
2022/05/05 02:05:58;;;;;;;4.85;1.95;;;;;;;10.92;35.21;101182.97;2086227;28;20775;-71
2022/05/05 02:07:03;;;;;;;10.32;2.42;;;;;;;10.92;35.06;101187.53;2070491;28;20926;-71
2022/05/05 02:08:12;;;;;;;5.95;1.92;;;;;;;10.90;35.08;101185.91;2071285;28;20414;-70
2022/05/05 02:09:16;;;;;;;4.85;2.03;;;;;;;10.93;35.64;101189.16;2094121;28;20079;-70
2022/05/05 02:10:22;;;;;;;5.60;1.90;;;;;;;10.92;35.42;101187.53;2078985;28;20300;-71
2022/05/05 02:11:25;;;;;;;5.38;1.95;;;;;;;10.84;35.51;101186.97;2084485;28;20296;-70
2022/05/05 02:12:38;;;;;;;4.05;2.13;;;;;;;10.82;35.42;101183.75;2086905;28;20303;-71
2022/05/05 02:13:48;;;;;;;5.70;2.22;;;;;;;10.87;35.37;101183.75;2091464;28;20366;-70
2022/05/05 02:14:54;;;;;;;5.70;2.00;;;;;;;10.88;35.70;101188.06;2093980;28;20044;-70
2022/05/05 02:15:59;;;;;;;6.90;1.90;;;;;;;10.82;35.83;101183.75;2095390;28;20306;-70
2022/05/05 02:17:05;;;;;;;3.15;1.83;;;;;;;10.81;35.76;101187.53;2094106;28;20278;-71
2022/05/05 02:18:12;;;;;;;5.55;1.92;;;;;;;10.83;35.96;101185.34;2094589;28;20283;-71
2022/05/05 02:19:19;;;;;;;5.50;2.03;;;;;;;10.82;35.48;101178.38;2090994;28;20275;-70
2022/05/05 02:20:27;;;;;;;6.22;1.65;;;;;;;10.74;36.35;101181.56;2102492;28;20304;-70
2022/05/05 02:21:35;;;;;;;8.13;1.88;;;;;;;10.74;35.98;101184.25;2096231;28;20291;-70
2022/05/05 02:22:42;;;;;;;5.30;1.77;;;;;;;10.76;35.64;101182.13;2093088;28;20302;-71
2022/05/05 02:23:47;;;;;;;4.45;1.95;;;;;;;10.73;36.18;101188.03;2098616;28;20279;-71
2022/05/05 02:24:50;;;;;;;7.35;1.90;;;;;;;10.75;35.82;101180.50;2094330;28;20293;-70
2022/05/05 02:25:59;;;;;;;7.80;2.10;;;;;;;10.74;35.74;101184.25;2095989;28;20286;-71
2022/05/05 02:27:05;;;;;;;4.53;2.00;;;;;;;10.79;35.83;101186.16;2103298;28;20285;-70
2022/05/05 02:28:11;;;;;;;6.80;2.05;;;;;;;10.82;36.58;101182.94;2093972;28;20793;-70
2022/05/05 02:29:18;;;;;;;5.90;2.00;;;;;;;10.80;35.72;101175.13;2085386;28;20296;-70
2022/05/05 02:30:28;;;;;;;8.23;2.20;;;;;;;10.79;36.30;101180.78;2080050;28;20292;-71
2022/05/05 02:31:31;;;;;;;4.97;1.80;;;;;;;10.76;35.96;101179.44;2090309;28;20283;-70
2022/05/05 02:32:34;;;;;;;7.15;2.00;;;;;;;10.66;36.35;101182.09;2085373;28;20291;-71
2022/05/05 02:33:37;;;;;;;3.72;2.00;;;;;;;10.63;36.15;101196.06;2087788;28;20280;-70
2022/05/05 02:34:40;;;;;;;3.30;2.00;;;;;;;10.64;36.14;101174.28;2093967;28;20309;-70
2022/05/05 02:38:42;;;;;;;5.10;2.03;;;;;;;10.73;36.45;101185.34;2097146;28;20681;-70
2022/05/05 02:38:46;;;;;;;4.25;2.53;;;;;;;10.83;36.63;101174.59;2081033;28;20286;-69
2022/05/05 02:39:48;;;;;;;6.38;2.20;;;;;;;10.85;36.19;101169.78;2113051;28;20054;-69
2022/05/05 02:40:53;;;;;;;7.25;1.88;;;;;;;10.81;36.16;101175.94;2110411;28;20305;-69
2022/05/05 02:41:57;;;;;;;4.88;2.28;;;;;;;10.84;36.44;101170.03;2094865;28;20396;-69
2022/05/05 02:43:01;;;;;;;7.57;1.98;;;;;;;10.78;36.29;101169.22;2085271;28;20295;-69
2022/05/05 02:44:05;;;;;;;8.48;2.60;;;;;;;10.73;37.09;101163.81;2078140;28;20307;-69
2022/05/05 02:45:10;;;;;;;10.90;2.40;;;;;;;10.80;36.06;101164.38;2071223;28;20379;-70
2022/05/05 02:46:14;;;;;;;5.65;2.00;;;;;;;10.80;36.00;101168.94;2071252;28;20351;-69
2022/05/05 02:47:19;;;;;;;3.28;1.98;;;;;;;10.81;36.51;101171.38;2078943;28;21150;-69
2022/05/05 02:48:27;;;;;;;5.80;2.22;;;;;;;10.84;36.00;101167.34;2095013;28;20286;-69
2022/05/05 02:49:35;;;;;;;5.78;1.95;;;;;;;10.84;36.55;101162.75;2094553;28;20279;-69
2022/05/05 02:50:42;;;;;;;5.90;2.00;;;;;;;10.85;36.46;101163.59;2093663;28;20781;-69
2022/05/05 02:51:45;;;;;;;7.47;2.00;;;;;;;10.85;36.85;101159.00;2085901;28;20576;-69
2022/05/05 02:52:51;;;;;;;4.90;2.08;;;;;;;10.82;36.57;101164.91;2087402;28;20287;-69
2022/05/05 02:55:23;;;;;;;4.35;1.70;;;;;;;10.86;36.87;101166.00;2088904;28;20283;-69
2022/05/05 02:56:25;;;;;;;5.53;2.00;;;;;;;10.88;37.07;101161.16;2098329;28;20297;-69
2022/05/05 02:57:30;;;;;;;8.77;2.80;;;;;;;10.90;36.55;101160.88;2102528;28;20298;-70
2022/05/05 02:58:33;;;;;;;4.10;1.90;;;;;;;10.95;36.62;101163.59;2101758;28;20282;-70
2022/05/05 02:59:35;;;;;;;4.03;1.83;;;;;;;10.91;36.85;101167.91;2095849;28;20295;-70
2022/05/05 03:00:38;;;;;;;9.00;3.10;;;;;;;10.94;36.79;101163.84;2102304;28;20309;-71
2022/05/05 03:01:43;;;;;;;8.00;2.80;;;;;;;10.96;36.83;101164.41;2102084;28;21594;-70
2022/05/05 03:02:54;;;;;;;7.85;2.97;;;;;;;11.00;36.95;101160.09;2094339;28;20287;-70
2022/05/05 03:03:56;;;;;;;15.70;2.72;;;;;;;11.05;36.85;101160.13;2094379;28;20287;-70
2022/05/05 03:04:58;;;;;;;7.28;2.50;;;;;;;11.05;36.58;101155.53;2102542;28;20290;-70
2022/05/05 03:06:06;;;;;;;11.13;3.70;;;;;;;11.06;37.37;101164.41;2077554;28;20295;-70
2022/05/05 03:07:11;;;;;;;9.50;2.60;;;;;;;11.05;37.07;101163.63;2080421;28;20295;-70
2022/05/05 03:08:17;;;;;;;9.90;2.50;;;;;;;11.05;37.24;101160.94;2085675;28;20303;-71
2022/05/05 03:09:22;;;;;;;6.47;2.70;;;;;;;11.08;36.72;101159.59;2068106;28;20292;-71
2022/05/05 03:10:27;;;;;;;10.93;3.97;;;;;;;11.07;36.76;101156.09;2078283;28;20291;-70
2022/05/05 03:11:35;;;;;;;12.02;3.75;;;;;;;10.96;37.60;101150.94;2078305;28;20292;-70
2022/05/05 03:12:39;;;;;;;9.75;4.50;;;;;;;10.95;37.46;101154.72;2082116;28;20330;-70
2022/05/05 03:13:45;;;;;;;16.58;4.35;;;;;;;10.93;37.74;101159.56;2080015;28;20748;-70
2022/05/05 03:14:52;;;;;;;5.32;2.28;;;;;;;10.92;37.20;101155.25;2080445;28;20303;-70
2022/05/05 03:15:56;;;;;;;5.45;1.98;;;;;;;10.91;37.56;101154.47;2102635;28;20301;-71
2022/05/05 03:16:58;;;;;;;5.35;2.50;;;;;;;10.93;37.79;101149.59;2117677;27;20284;-70
2022/05/05 03:18:00;;;;;;;7.05;2.10;;;;;;;10.93;37.72;101148.78;2101494;28;20290;-70
2022/05/05 03:19:07;;;;;;;9.15;2.20;;;;;;;10.90;37.51;101152.81;2099675;28;20290;-70
2022/05/05 03:20:13;;;;;;;7.03;2.35;;;;;;;10.96;37.73;101150.94;2100394;28;20316;-70
2022/05/05 03:21:16;;;;;;;7.35;2.72;;;;;;;11.01;38.12;101146.41;2102381;28;20753;-70
2022/05/05 03:22:19;;;;;;;8.02;2.75;;;;;;;11.09;38.13;101155.81;2101212;28;20318;-70
2022/05/05 03:23:25;;;;;;;6.45;2.40;;;;;;;11.15;37.98;101143.97;2093675;28;20317;-70
2022/05/05 03:24:27;;;;;;;6.90;2.38;;;;;;;11.14;37.93;101142.38;2089976;28;20295;-69
2022/05/05 03:25:33;;;;;;;7.85;2.83;;;;;;;11.22;37.64;101154.47;2093939;28;20303;-70
2022/05/05 03:26:35;;;;;;;5.78;2.28;;;;;;;11.23;37.88;101154.22;2101804;28;20352;-69
2022/05/05 03:27:39;;;;;;;5.70;2.60;;;;;;;11.18;37.86;101151.53;2102458;28;20282;-69
2022/05/05 03:28:43;;;;;;;9.40;2.10;;;;;;;11.16;37.27;101148.31;2094975;28;20290;-69
2022/05/05 03:29:48;;;;;;;9.40;2.30;;;;;;;11.11;38.07;101148.28;2095686;28;20749;-70
2022/05/05 03:30:51;;;;;;;7.35;2.25;;;;;;;11.16;38.24;101145.63;2095670;28;20298;-70
2022/05/05 03:31:54;;;;;;;7.57;2.50;;;;;;;11.20;38.03;101144.00;2102952;28;20293;-70
2022/05/05 03:32:59;;;;;;;12.07;2.25;;;;;;;11.24;38.07;101141.56;2104493;28;20332;-70
2022/05/05 03:34:05;;;;;;;5.43;2.47;;;;;;;11.27;38.06;101147.22;2103968;28;20294;-70
2022/05/05 03:35:08;;;;;;;6.95;2.60;;;;;;;11.26;38.04;101151.00;2095728;28;20297;-70
2022/05/05 03:36:11;;;;;;;8.25;2.67;;;;;;;11.27;38.03;101141.84;2094492;28;20306;-70
2022/05/05 03:37:22;;;;;;;8.68;2.38;;;;;;;11.26;37.78;101152.88;2103652;28;20294;-69
2022/05/05 03:38:25;;;;;;;7.75;2.30;;;;;;;11.22;38.17;101139.13;2103791;28;20736;-70
2022/05/05 03:39:27;;;;;;;4.60;2.40;;;;;;;11.18;38.53;101143.44;2081396;28;20310;-69
2022/05/05 03:40:33;;;;;;;5.55;2.60;;;;;;;11.25;38.21;101149.38;2079798;28;20311;-69
2022/05/05 03:41:37;;;;;;;7.22;2.40;;;;;;;11.29;38.22;101144.28;2079252;28;20728;-69
2022/05/05 03:42:42;;;;;;;9.25;2.85;;;;;;;11.30;38.01;101152.06;2089261;28;20279;-69
2022/05/05 03:43:43;;;;;;;4.60;2.15;;;;;;;11.23;38.58;101151.53;2095026;28;20321;-69
2022/05/05 03:44:46;;;;;;;10.88;2.33;;;;;;;11.17;38.54;101144.53;2092148;28;20298;-69
2022/05/05 03:45:51;;;;;;;6.38;2.38;;;;;;;11.23;38.37;101137.28;2104125;28;20746;-69
2022/05/05 03:46:55;;;;;;;7.72;2.83;;;;;;;11.30;38.41;101135.13;2102257;28;20872;-69
2022/05/05 03:48:00;;;;;;;8.73;3.05;;;;;;;11.32;38.39;101138.34;2095251;28;20299;-69
2022/05/05 03:49:05;;;;;;;12.70;2.40;;;;;;;11.31;38.63;101140.22;2104592;28;20074;-69
2022/05/05 03:50:12;;;;;;;6.75;2.45;;;;;;;11.32;38.68;101141.06;2103046;28;20305;-69
2022/05/05 03:51:14;;;;;;;9.20;2.35;;;;;;;11.35;38.22;101140.50;2097120;28;20075;-69
2022/05/05 03:52:19;;;;;;;7.40;2.75;;;;;;;11.40;38.26;101142.38;2100737;28;20298;-69
2022/05/05 03:53:23;;;;;;;7.65;2.22;;;;;;;11.41;38.13;101147.47;2103816;28;20732;-69
2022/05/05 03:54:27;;;;;;;10.82;2.65;;;;;;;11.33;38.67;101150.72;2084441;28;20049;-68
2022/05/05 03:55:31;;;;;;;10.90;2.58;;;;;;;11.32;38.72;101155.31;2072611;28;20052;-69
2022/05/05 03:56:36;;;;;;;4.60;2.50;;;;;;;11.32;38.19;101149.94;2087574;28;20302;-69
2022/05/05 03:57:41;;;;;;;5.97;2.42;;;;;;;11.33;38.69;101146.16;2078700;28;20303;-68
2022/05/05 03:58:47;;;;;;;7.82;2.60;;;;;;;11.40;38.20;101148.56;2080198;28;20295;-69
2022/05/05 03:59:53;;;;;;;7.93;2.20;;;;;;;11.45;38.70;101143.19;2076277;28;20476;-69
2022/05/05 04:00:58;;;;;;;10.88;2.85;;;;;;;11.40;38.75;101145.88;2095042;28;20044;-70
2022/05/05 04:02:03;;;;;;;9.13;2.35;;;;;;;11.30;38.44;101145.88;2103775;28;20059;-69
2022/05/05 04:04:26;;;;;;;5.85;3.03;;;;;;;11.30;39.02;101149.38;2097824;28;20937;-68
2022/05/05 04:05:29;;;;;;;8.80;2.30;;;;;;;11.34;38.98;101147.75;2094869;28;20055;-69
2022/05/05 04:06:32;;;;;;;5.88;2.42;;;;;;;11.37;38.71;101146.41;2094819;28;20282;-69
2022/05/05 04:07:35;;;;;;;6.88;2.47;;;;;;;11.36;39.03;101145.63;2100251;28;20282;-70
2022/05/05 04:08:41;;;;;;;6.68;2.47;;;;;;;11.39;38.57;101148.84;2087780;28;20794;-69
2022/05/05 04:09:46;;;;;;;10.63;2.50;;;;;;;11.34;38.90;101147.75;2082477;28;20288;-71
2022/05/05 04:10:52;;;;;;;9.50;2.83;;;;;;;11.36;39.24;101148.31;2094797;28;20298;-70
2022/05/05 04:11:56;;;;;;;6.65;2.38;;;;;;;11.40;39.24;101148.56;2094745;28;20306;-70
2022/05/05 04:13:02;;;;;;;6.70;2.50;;;;;;;11.34;38.92;101150.44;2088356;28;20064;-70
2022/05/05 04:14:04;;;;;;;8.77;2.70;;;;;;;11.34;39.13;101149.66;2095561;28;20291;-70
2022/05/05 04:15:06;;;;;;;10.10;2.30;;;;;;;11.34;38.70;101149.66;2100036;28;20896;-72
2022/05/05 04:16:09;;;;;;;7.68;2.50;;;;;;;11.35;38.97;101156.66;2095327;28;20286;-73
2022/05/05 04:17:13;;;;;;;9.20;2.80;;;;;;;11.35;39.36;101153.97;2094631;28;20282;-71
2022/05/05 04:18:18;;;;;;;7.78;2.40;;;;;;;11.35;38.85;101154.78;2094736;28;20313;-70
2022/05/05 04:19:23;;;;;;;6.80;2.65;;;;;;;11.41;39.40;101146.69;2102828;28;20278;-70
2022/05/05 04:20:26;;;;;;;5.57;2.40;;;;;;;11.39;38.97;101154.25;2089289;28;20306;-69
2022/05/05 04:21:31;;;;;;;5.15;2.67;;;;;;;11.40;39.51;101145.88;2094484;28;20301;-70
2022/05/05 04:22:43;;;;;;;5.43;2.55;;;;;;;11.25;39.19;101149.38;2086957;28;20322;-70
2022/05/05 04:23:47;;;;;;;5.57;2.40;;;;;;;11.24;39.63;101147.75;2089864;28;20291;-73
2022/05/05 04:24:50;;;;;;;5.68;2.50;;;;;;;11.33;39.38;101156.13;2084602;28;20401;-71
2022/05/05 04:26:00;;;;;;;9.77;2.42;;;;;;;11.34;39.27;101158.53;2082737;28;20056;-71
2022/05/05 04:27:07;;;;;;;10.18;2.78;;;;;;;11.35;39.80;101160.16;2103066;28;20298;-71
2022/05/05 04:28:13;;;;;;;8.43;2.80;;;;;;;11.37;39.25;101152.59;2094389;28;20290;-72
2022/05/05 04:29:15;;;;;;;7.55;2.40;;;;;;;11.40;39.37;101147.78;2087214;28;20291;-73
2022/05/05 04:30:23;;;;;;;14.95;3.28;;;;;;;11.39;39.64;101149.66;2099179;28;20294;-69
2022/05/05 04:31:30;;;;;;;12.98;2.38;;;;;;;11.45;39.94;101151.28;2093297;28;20286;-69
2022/05/05 04:32:34;;;;;;;10.02;2.47;;;;;;;11.52;39.47;101151.81;2098412;28;20298;-70
2022/05/05 04:33:37;;;;;;;6.18;2.72;;;;;;;11.58;39.99;101152.63;2085518;28;20068;-69
2022/05/05 04:34:42;;;;;;;11.25;2.55;;;;;;;11.60;39.62;101150.44;2086618;28;20294;-69
2022/05/05 04:35:45;;;;;;;6.90;2.40;;;;;;;11.62;39.28;101153.69;2100998;28;20075;-69
2022/05/05 04:36:50;;;;;;;7.15;2.28;;;;;;;11.65;39.22;101157.72;2086973;28;20299;-74
2022/05/05 04:37:51;;;;;;;7.40;2.42;;;;;;;11.59;39.31;101155.03;2060906;28;20753;-70
2022/05/05 04:38:54;;;;;;;6.70;2.78;;;;;;;11.61;39.51;101160.16;2085904;28;20295;-70
2022/05/05 04:39:58;;;;;;;6.35;2.35;;;;;;;11.53;39.29;101158.00;2090215;28;20297;-69
2022/05/05 04:41:06;;;;;;;7.15;2.50;;;;;;;11.55;39.57;101163.94;2093964;28;20182;-69
2022/05/05 04:42:11;;;;;;;5.88;3.10;;;;;;;11.61;39.41;101162.84;2101884;28;20641;-69
2022/05/05 04:43:14;;;;;;;4.43;2.20;;;;;;;11.69;39.28;101164.19;2101080;28;20304;-70
2022/05/05 04:44:20;;;;;;;9.07;2.67;;;;;;;11.70;39.33;101160.44;2100296;28;20067;-70
2022/05/05 04:45:23;;;;;;;8.73;2.78;;;;;;;11.65;39.16;101163.91;2098385;28;20290;-71
2022/05/05 04:46:30;;;;;;;8.73;2.85;;;;;;;11.60;39.66;101161.22;2098748;28;20042;-69
2022/05/05 04:47:35;;;;;;;7.20;2.60;;;;;;;11.60;39.91;101174.69;2098164;28;20299;-70
2022/05/05 04:48:44;;;;;;;49.00;4.28;;;;;;;11.59;40.21;101165.00;2100980;28;20289;-70
2022/05/05 04:49:46;;;;;;;4.32;2.40;;;;;;;11.57;39.79;101169.88;2098473;28;20286;-71
2022/05/05 04:50:49;;;;;;;8.75;2.67;;;;;;;11.57;39.85;101167.16;2088269;28;20064;-71
2022/05/05 04:51:50;;;;;;;9.23;2.30;;;;;;;11.58;39.72;101169.56;2085158;28;20410;-72
2022/05/05 04:52:54;;;;;;;8.80;2.60;;;;;;;11.55;39.80;101163.94;2085443;28;20052;-68
2022/05/05 04:53:59;;;;;;;6.85;2.28;;;;;;;11.52;40.18;101164.47;2085384;28;20295;-67
2022/05/05 04:55:03;;;;;;;11.27;2.40;;;;;;;11.60;40.01;101167.44;2089241;28;20306;-70
2022/05/05 04:56:06;;;;;;;15.93;2.75;;;;;;;11.62;40.20;101164.47;2091223;28;20755;-69
2022/05/05 04:57:08;;;;;;;9.38;2.55;;;;;;;11.65;39.57;101160.41;2088334;28;20299;-69
2022/05/05 04:58:13;;;;;;;11.30;2.60;;;;;;;11.66;40.19;101159.34;2085184;28;20291;-70
2022/05/05 04:59:17;;;;;;;12.05;2.95;;;;;;;11.71;39.79;101156.66;2082816;28;20045;-70
2022/05/05 05:00:25;;;;;;;10.25;3.10;;;;;;;11.79;39.75;101165.00;2093150;28;20076;-71
2022/05/05 05:01:27;;;;;;;5.68;2.60;;;;;;;11.85;39.65;101165.00;2101987;28;20052;-68
2022/05/05 05:02:34;;;;;;;8.40;2.75;;;;;;;11.86;39.81;101164.75;2076855;28;20049;-70
2022/05/05 05:03:37;;;;;;;8.13;2.50;;;;;;;11.91;39.96;101158.53;2071176;28;20525;-72
2022/05/05 05:04:43;;;;;;;13.48;3.00;;;;;;;11.82;39.74;101160.91;2085887;28;20045;-69
2022/05/05 05:05:45;;;;;;;10.55;2.90;;;;;;;11.77;39.78;101163.63;2084431;28;20424;-68
2022/05/05 05:06:49;;;;;;;8.20;2.80;;;;;;;11.69;39.92;101150.72;2102918;28;20900;-68
2022/05/05 05:07:59;;;;;;;8.75;3.05;;;;;;;11.74;39.80;101153.41;2103084;28;20293;-69
2022/05/05 05:09:02;;;;;;;10.40;3.10;;;;;;;11.69;40.35;101156.91;2102765;28;20051;-68
2022/05/05 05:10:10;;;;;;;7.07;2.60;;;;;;;11.76;40.33;101153.94;2101912;28;20278;-68
2022/05/05 05:11:13;;;;;;;19.08;3.10;;;;;;;11.71;40.52;101143.97;2097363;28;20056;-68
2022/05/05 05:12:18;;;;;;;12.80;3.22;;;;;;;11.76;40.19;101154.75;2079974;28;20504;-69
2022/05/05 05:13:24;;;;;;;10.45;2.92;;;;;;;11.81;40.24;101154.72;2086343;28;20460;-69